Time;durP1;ratioP1;P1;durP2;ratioP2;P2;SDS_P1;SDS_P2;PMS_P1;PMS_P2;Temp;Humidity;BMP_temperature;BMP_pressure;BME280_temperature;BME280_humidity;BME280_pressure;Samples;Min_cycle;Max_cycle;Signal;HPM_P1;HPM_P2
2024/04/01 00:02:18;;;;;;;115.63;106.60;;;;;15.80;95595.00;;;;5018297;28;20228;-83
2024/04/01 00:05:06;;;;;;;140.13;126.13;;;;;15.90;95576.00;;;;5026402;28;20226;-81
2024/04/01 00:07:55;;;;;;;147.13;131.13;;;;;15.60;95580.00;;;;5030980;28;20670;-80
2024/04/01 00:10:43;;;;;;;251.63;147.60;;;;;15.60;95573.00;;;;5017836;28;20236;-82
2024/04/01 00:13:31;;;;;;;100.93;93.57;;;;;15.80;95592.00;;;;5023532;28;20205;-82
2024/04/01 00:16:19;;;;;;;105.23;96.97;;;;;15.80;95572.00;;;;5032007;28;20205;-83
2024/04/01 00:19:07;;;;;;;118.57;108.23;;;;;15.30;95575.00;;;;5028528;28;20210;-81
2024/04/01 00:21:54;;;;;;;134.07;121.00;;;;;15.60;95560.00;;;;5017734;28;20571;-84
2024/04/01 00:24:42;;;;;;;110.47;101.50;;;;;15.70;95569.00;;;;5019610;28;20209;-82
2024/04/01 00:27:31;;;;;;;123.93;112.53;;;;;15.70;95541.00;;;;5025292;28;20229;-83
2024/04/01 00:30:19;;;;;;;119.17;109.13;;;;;15.00;95552.00;;;;5020373;28;20201;-84
2024/04/01 00:33:07;;;;;;;132.00;118.80;;;;;14.80;95553.00;;;;5017279;28;20725;-82
2024/04/01 00:35:55;;;;;;;156.40;130.97;;;;;15.40;95545.00;;;;5025237;28;20580;-84
2024/04/01 00:38:42;;;;;;;124.80;113.43;;;;;15.30;95550.00;;;;5021056;28;20257;-84
2024/04/01 00:41:31;;;;;;;110.97;101.53;;;;;15.40;95540.00;;;;5017877;28;20281;-81
2024/04/01 00:44:19;;;;;;;130.30;117.43;;;;;15.30;95532.00;;;;5021368;28;20270;-81
2024/04/01 00:47:07;;;;;;;145.47;127.07;;;;;14.90;95522.00;;;;5016260;28;20226;-85
2024/04/01 00:49:55;;;;;;;192.20;141.13;;;;;15.20;95535.00;;;;5016891;28;20206;-85
2024/04/01 00:52:43;;;;;;;226.57;133.87;;;;;15.10;95524.00;;;;5023398;28;20213;-81
2024/04/01 00:55:31;;;;;;;194.57;136.00;;;;;14.30;95513.00;;;;5031530;28;20212;-82
2024/04/01 00:58:19;;;;;;;208.70;132.70;;;;;15.10;95503.00;;;;5032590;28;20197;-82
2024/04/01 01:01:08;;;;;;;230.93;138.53;;;;;15.10;95503.00;;;;5029171;28;20667;-83
2024/04/01 01:03:56;;;;;;;104.20;94.77;;;;;15.10;95528.00;;;;5034947;28;20549;-83
2024/04/01 01:06:44;;;;;;;23.13;20.43;;;;;15.10;95505.00;;;;5022832;28;20764;-81
2024/04/01 01:09:32;;;;;;;148.43;120.53;;;;;15.00;95507.00;;;;5031663;28;20215;-83
2024/04/01 01:12:20;;;;;;;14.87;12.50;;;;;15.10;95509.00;;;;5025619;28;20224;-83
2024/04/01 01:15:10;;;;;;;6.33;3.57;;;;;15.10;95491.00;;;;5028899;28;20670;-83
2024/04/01 01:17:58;;;;;;;13.93;5.23;;;;;14.50;95498.00;;;;5017725;28;20674;-82
2024/04/01 01:20:47;;;;;;;14.70;5.20;;;;;14.80;95510.00;;;;5028486;28;20232;-83
2024/04/01 01:23:35;;;;;;;8.67;3.30;;;;;14.90;95506.00;;;;5019611;28;20209;-82
2024/04/01 01:26:23;;;;;;;8.37;3.03;;;;;14.70;95494.00;;;;5018236;28;20553;-82
2024/04/01 01:29:10;;;;;;;11.07;3.70;;;;;15.00;95495.00;;;;5026233;28;20197;-82
2024/04/01 01:32:00;;;;;;;15.30;5.30;;;;;14.90;95486.00;;;;5027854;28;20232;-84
2024/04/01 01:34:47;;;;;;;12.60;4.30;;;;;14.80;95485.00;;;;5033539;28;20616;-84
2024/04/01 01:37:36;;;;;;;6.83;2.43;;;;;14.90;95461.00;;;;5027199;28;20667;-82
2024/04/01 01:40:25;;;;;;;5.60;2.00;;;;;14.30;95465.00;;;;5029342;28;20208;-83
2024/04/01 01:43:12;;;;;;;11.33;3.83;;;;;14.20;95447.00;;;;5042289;28;20205;-83
2024/04/01 01:46:01;;;;;;;8.40;3.13;;;;;14.40;95446.00;;;;5027033;28;20217;-84
2024/04/01 01:48:48;;;;;;;13.07;4.40;;;;;14.30;95442.00;;;;5029917;28;20644;-83
2024/04/01 01:51:36;;;;;;;7.20;2.60;;;;;14.40;95427.00;;;;5025129;28;20768;-83
2024/04/01 01:54:23;;;;;;;7.60;2.73;;;;;14.50;95409.00;;;;5022611;28;20642;-79
2024/04/01 01:57:13;;;;;;;7.07;2.57;;;;;14.40;95414.00;;;;5029032;28;20197;-84
2024/04/01 02:00:00;;;;;;;9.33;3.10;;;;;14.30;95403.00;;;;5025789;28;20590;-84
2024/04/01 02:02:48;;;;;;;14.87;4.93;;;;;14.40;95402.00;;;;5028870;28;20201;-82
2024/04/01 02:05:37;;;;;;;8.77;3.00;;;;;14.20;95383.00;;;;5028013;28;20578;-83
2024/04/01 02:08:25;;;;;;;8.63;3.03;;;;;14.40;95384.00;;;;5037852;28;20235;-83
2024/04/01 02:11:12;;;;;;;7.90;2.77;;;;;14.40;95379.00;;;;5028013;28;20236;-81
2024/04/01 02:14:02;;;;;;;8.67;3.00;;;;;14.10;95372.00;;;;5038306;28;22329;-82
2024/04/01 02:16:49;;;;;;;22.90;7.17;;;;;13.80;95379.00;;;;5026467;28;20205;-80
2024/04/01 02:19:38;;;;;;;11.60;3.83;;;;;13.60;95396.00;;;;5024828;28;20280;-83
2024/04/01 02:22:25;;;;;;;8.67;3.07;;;;;14.00;95402.00;;;;5032425;28;20710;-83
2024/04/01 02:25:17;;;;;;;8.37;2.73;;;;;14.20;95400.00;;;;5040497;28;20609;-81
2024/04/01 02:28:04;;;;;;;9.90;3.43;;;;;14.20;95385.00;;;;5029187;28;20231;-84
2024/04/01 02:30:54;;;;;;;15.83;4.87;;;;;14.00;95391.00;;;;5040511;28;20284;-82
2024/04/01 02:33:41;;;;;;;13.17;4.17;;;;;14.00;95390.00;;;;5021699;28;20835;-82
2024/04/01 02:36:29;;;;;;;7.20;2.57;;;;;13.90;95352.00;;;;5025131;28;20208;-84
2024/04/01 02:39:16;;;;;;;9.47;3.13;;;;;14.10;95361.00;;;;5026617;28;20277;-83
2024/04/01 02:42:05;;;;;;;11.23;3.73;;;;;14.00;95369.00;;;;5040790;28;20284;-81
2024/04/01 02:44:52;;;;;;;11.33;3.87;;;;;14.10;95361.00;;;;5038846;28;20277;-80
2024/04/01 02:47:41;;;;;;;4.93;1.77;;;;;13.90;95318.00;;;;5042239;28;20220;-79
2024/04/01 02:50:29;;;;;;;10.17;3.33;;;;;13.50;95317.00;;;;5042211;28;20205;-80
2024/04/01 02:53:17;;;;;;;8.17;2.90;;;;;13.60;95315.00;;;;5042931;28;20273;-79
2024/04/01 02:56:06;;;;;;;9.53;3.17;;;;;13.80;95318.00;;;;5047815;28;20225;-79
2024/04/01 02:58:55;;;;;;;16.53;5.27;;;;;13.80;95307.00;;;;5039354;28;20216;-79
2024/04/01 03:01:42;;;;;;;5.47;1.93;;;;;13.70;95304.00;;;;5041322;28;20278;-79
2024/04/01 03:04:31;;;;;;;11.30;3.80;;;;;13.60;95297.00;;;;5040644;28;20210;-82
2024/04/01 03:07:18;;;;;;;6.83;2.37;;;;;13.60;95301.00;;;;5019299;28;20285;-80
2024/04/01 03:10:07;;;;;;;10.20;3.30;;;;;13.50;95308.00;;;;5021094;28;20280;-81
2024/04/01 03:12:55;;;;;;;15.53;5.10;;;;;13.50;95315.00;;;;5022342;28;20239;-80
2024/04/01 03:15:45;;;;;;;9.00;3.00;;;;;13.50;95295.00;;;;5018348;28;20278;-80
2024/04/01 03:18:34;;;;;;;9.40;3.07;;;;;13.60;95297.00;;;;5022463;28;20208;-80
2024/04/01 03:21:22;;;;;;;8.23;2.90;;;;;12.40;95312.00;;;;5024538;28;20565;-82
2024/04/01 03:24:10;;;;;;;10.10;3.27;;;;;13.20;95317.00;;;;5020578;28;20205;-83
2024/04/01 03:26:57;;;;;;;15.30;5.00;;;;;13.60;95322.00;;;;5016042;28;20222;-82
2024/04/01 03:29:45;;;;;;;13.87;4.43;;;;;13.30;95326.00;;;;5019002;28;20204;-81
2024/04/01 03:32:34;;;;;;;8.90;3.03;;;;;13.30;95323.00;;;;5015938;28;20294;-82
2024/04/01 03:35:21;;;;;;;9.50;3.23;;;;;13.40;95323.00;;;;5020300;28;20217;-81
2024/04/01 03:38:10;;;;;;;10.40;3.53;;;;;13.70;95331.00;;;;5024064;28;20209;-79
2024/04/01 03:40:58;;;;;;;15.60;5.03;;;;;14.00;95315.00;;;;5023453;28;20235;-82
2024/04/01 03:43:47;;;;;;;17.77;5.83;;;;;13.90;95301.00;;;;5013906;28;20745;-83
2024/04/01 03:46:34;;;;;;;11.63;4.77;;;;;13.40;95318.00;;;;5012844;28;20257;-83
2024/04/01 03:49:22;;;;;;;48.10;43.73;;;;;13.60;95294.00;;;;5023564;28;20208;-81
2024/04/01 03:52:09;;;;;;;32.57;26.37;;;;;13.20;95300.00;;;;5025137;28;20233;-81
2024/04/01 03:54:59;;;;;;;17.23;6.37;;;;;12.70;95293.00;;;;5021943;28;20601;-84
2024/04/01 03:57:47;;;;;;;17.47;7.07;;;;;13.20;95303.00;;;;5007663;28;20683;-83
2024/04/01 04:00:35;;;;;;;8.40;3.90;;;;;13.20;95306.00;;;;5025358;28;20227;-84
2024/04/01 04:03:22;;;;;;;12.33;4.90;;;;;13.00;95328.00;;;;5017586;28;20212;-83
2024/04/01 04:06:11;;;;;;;9.43;3.93;;;;;13.30;95318.00;;;;5025448;28;20203;-84
2024/04/01 04:08:58;;;;;;;16.90;6.77;;;;;12.70;95345.00;;;;5018167;28;20610;-82
2024/04/01 04:11:49;;;;;;;45.07;32.20;;;;;13.20;95338.00;;;;5024367;28;20702;-79
2024/04/01 04:14:36;;;;;;;15.70;5.30;;;;;13.20;95354.00;;;;5015506;28;20202;-83
2024/04/01 04:17:24;;;;;;;10.20;3.97;;;;;13.00;95361.00;;;;5016060;28;20205;-81
2024/04/01 04:20:11;;;;;;;10.63;4.50;;;;;13.20;95355.00;;;;5025828;28;20686;-82
2024/04/01 04:23:00;;;;;;;17.80;6.53;;;;;13.10;95347.00;;;;5033189;28;20431;-81
2024/04/01 04:25:47;;;;;;;27.40;22.83;;;;;13.10;95342.00;;;;5017225;28;20209;-80
2024/04/01 04:28:36;;;;;;;47.00;42.97;;;;;13.10;95324.00;;;;5020081;28;20236;-80
2024/04/01 04:31:24;;;;;;;11.60;3.83;;;;;12.80;95317.00;;;;5018085;28;20285;-80
2024/04/01 04:34:12;;;;;;;13.17;4.87;;;;;12.90;95322.00;;;;5019015;28;20459;-80
2024/04/01 04:36:59;;;;;;;16.90;5.57;;;;;13.10;95303.00;;;;5027545;28;20204;-80
2024/04/01 04:39:47;;;;;;;14.63;4.67;;;;;13.20;95323.00;;;;5018229;28;20792;-81
2024/04/01 04:42:34;;;;;;;9.97;3.53;;;;;13.00;95336.00;;;;5021773;28;20229;-82
2024/04/01 04:45:24;;;;;;;9.03;3.57;;;;;13.20;95314.00;;;;5018517;28;20212;-80
2024/04/01 04:48:11;;;;;;;12.40;4.20;;;;;13.20;95305.00;;;;5029099;28;20494;-81
2024/04/01 04:50:59;;;;;;;16.17;5.07;;;;;12.90;95309.00;;;;5041676;28;20229;-80
2024/04/01 04:53:46;;;;;;;16.93;5.40;;;;;12.10;95304.00;;;;5017090;28;20206;-81
2024/04/01 04:56:34;;;;;;;11.03;3.57;;;;;13.10;95312.00;;;;5019374;28;20584;-80
2024/04/01 04:59:22;;;;;;;8.40;2.90;;;;;13.40;95313.00;;;;5024546;28;20701;-80
2024/04/01 05:02:11;;;;;;;9.60;3.23;;;;;13.40;95303.00;;;;5026575;28;20235;-82
2024/04/01 05:04:59;;;;;;;16.63;5.17;;;;;13.50;95306.00;;;;5020332;28;20223;-82
2024/04/01 05:07:48;;;;;;;11.47;3.77;;;;;13.50;95313.00;;;;5026545;28;20701;-81
2024/04/01 05:10:35;;;;;;;7.90;2.97;;;;;13.20;95314.00;;;;5021798;28;20204;-82
2024/04/01 05:13:23;;;;;;;9.40;3.33;;;;;13.50;95315.00;;;;5032772;28;20209;-80
2024/04/01 05:16:11;;;;;;;14.00;4.57;;;;;14.60;95308.00;;;;5019028;28;20205;-81
2024/04/01 05:19:00;;;;;;;16.33;5.57;;;;;14.70;95320.00;;;;5028362;28;20239;-83
2024/04/01 05:21:48;;;;;;;17.03;5.90;;;;;14.80;95333.00;;;;5030552;28;20608;-81
2024/04/01 05:24:36;;;;;;;13.50;5.03;;;;;14.90;95304.00;;;;5020188;28;20206;-81
2024/04/01 05:27:23;;;;;;;16.70;5.97;;;;;15.00;95312.00;;;;5021242;28;20255;-82
2024/04/01 05:30:11;;;;;;;11.93;5.43;;;;;15.10;95303.00;;;;5029952;28;20201;-84
2024/04/01 05:32:58;;;;;;;23.27;8.93;;;;;14.60;95323.00;;;;5017386;28;20260;-82
2024/04/01 05:35:49;;;;;;;18.00;9.07;;;;;15.10;95295.00;;;;5026036;28;20264;-83
2024/04/01 05:38:37;;;;;;;12.10;5.30;;;;;14.90;95296.00;;;;5018650;28;20201;-84
2024/04/01 05:41:24;;;;;;;10.50;4.77;;;;;15.50;95315.00;;;;5030393;28;20240;-81
2024/04/01 05:44:12;;;;;;;11.33;5.13;;;;;15.80;95285.00;;;;5020902;28;20687;-81
2024/04/01 05:47:00;;;;;;;20.97;9.47;;;;;15.90;95279.00;;;;5021978;28;20197;-83
2024/04/01 05:49:47;;;;;;;22.73;13.30;;;;;15.70;95279.00;;;;5021913;28;20227;-83
2024/04/01 05:52:37;;;;;;;12.70;7.93;;;;;16.20;95299.00;;;;5022521;28;20234;-82
2024/04/01 05:55:24;;;;;;;13.53;7.07;;;;;16.20;95280.00;;;;5029277;28;20229;-80
2024/04/01 05:58:12;;;;;;;14.47;8.30;;;;;16.40;95294.00;;;;5033961;28;20206;-83
2024/04/01 06:01:00;;;;;;;21.07;8.53;;;;;16.20;95291.00;;;;5039083;28;20228;-80
2024/04/01 06:03:48;;;;;;;22.33;10.97;;;;;16.40;95288.00;;;;5032797;28;20551;-81
2024/04/01 06:06:35;;;;;;;15.77;9.67;;;;;16.60;95296.00;;;;5019876;28;20210;-81
2024/04/01 06:09:25;;;;;;;11.87;8.23;;;;;16.70;95284.00;;;;5031718;28;20225;-79
2024/04/01 06:12:12;;;;;;;14.47;12.60;;;;;16.70;95267.00;;;;5026353;28;20229;-83
2024/04/01 06:15:00;;;;;;;19.53;17.57;;;;;17.10;95265.00;;;;5012035;28;20229;-81
2024/04/01 06:17:48;;;;;;;32.93;30.00;;;;;17.40;95290.00;;;;5013987;28;20217;-82
2024/04/01 06:20:36;;;;;;;22.73;20.73;;;;;17.60;95299.00;;;;5019846;28;20266;-80
2024/04/01 06:23:23;;;;;;;17.80;15.27;;;;;17.60;95295.00;;;;5017310;28;20219;-79
2024/04/01 06:26:13;;;;;;;22.10;20.13;;;;;18.20;95292.00;;;;5016235;28;20216;-81
2024/04/01 06:29:00;;;;;;;38.97;35.33;;;;;18.60;95303.00;;;;5011503;28;20225;-82
2024/04/01 06:31:48;;;;;;;66.17;61.03;;;;;18.60;95309.00;;;;5008532;28;21401;-79
2024/04/01 06:34:35;;;;;;;46.23;42.37;;;;;19.40;95296.00;;;;5017585;28;20216;-79
2024/04/01 06:37:24;;;;;;;66.67;62.80;;;;;19.60;95317.00;;;;5007229;28;20209;-81
2024/04/01 06:40:11;;;;;;;57.43;54.47;;;;;19.80;95283.00;;;;5017515;28;20612;-79
2024/04/01 06:43:01;;;;;;;58.90;54.93;;;;;20.30;95265.00;;;;5020467;28;20686;-80
2024/04/01 06:45:52;;;;;;;85.90;80.30;;;;;20.20;95290.00;;;;5012283;28;20217;-81
2024/04/01 06:48:40;;;;;;;144.43;134.90;;;;;20.80;95287.00;;;;5022318;28;20891;-81
2024/04/01 06:51:27;;;;;;;239.47;217.70;;;;;21.00;95288.00;;;;5011739;28;20229;-80
2024/04/01 06:54:16;;;;;;;102.53;96.50;;;;;21.20;95287.00;;;;5020377;28;20215;-80
2024/04/01 06:57:03;;;;;;;113.73;107.10;;;;;21.30;95289.00;;;;5013012;28;20213;-82
2024/04/01 06:59:52;;;;;;;119.70;112.37;;;;;21.40;95272.00;;;;5023714;28;20201;-80
2024/04/01 07:02:41;;;;;;;122.80;116.10;;;;;21.40;95272.00;;;;5020176;28;20314;-81
2024/04/01 07:05:29;;;;;;;117.30;111.07;;;;;21.50;95290.00;;;;5011527;28;20238;-82
2024/04/01 07:08:16;;;;;;;140.10;132.77;;;;;21.70;95289.00;;;;5015854;28;20232;-82
2024/04/01 07:11:05;;;;;;;136.93;129.47;;;;;21.90;95293.00;;;;5010912;28;20220;-80
2024/04/01 07:13:52;;;;;;;143.60;136.13;;;;;21.90;95302.00;;;;5009927;28;20225;-80
2024/04/01 07:16:42;;;;;;;154.17;145.70;;;;;22.10;95309.00;;;;5010399;28;20213;-82
2024/04/01 07:19:29;;;;;;;163.53;154.13;;;;;22.10;95298.00;;;;5009027;28;20630;-82
2024/04/01 07:22:17;;;;;;;163.53;154.87;;;;;22.20;95318.00;;;;5015833;28;20225;-81
2024/04/01 07:25:05;;;;;;;174.50;165.80;;;;;22.40;95316.00;;;;5020761;28;20205;-82
2024/04/01 07:27:53;;;;;;;195.70;184.50;;;;;22.40;95316.00;;;;5012622;28;20228;-80
2024/04/01 07:30:42;;;;;;;200.60;188.87;;;;;22.10;95308.00;;;;5005971;28;20229;-80
2024/04/01 07:33:31;;;;;;;197.20;187.30;;;;;22.30;95319.00;;;;5012785;28;20700;-81
2024/04/01 07:36:18;;;;;;;201.40;190.97;;;;;21.30;95295.00;;;;5015049;28;20265;-82
2024/04/01 07:39:07;;;;;;;205.73;194.87;;;;;22.60;95308.00;;;;5017937;28;20624;-82
2024/04/01 07:41:54;;;;;;;212.33;199.77;;;;;21.80;95309.00;;;;5018404;28;20532;-83
2024/04/01 07:44:42;;;;;;;199.57;188.50;;;;;21.00;95311.00;;;;5013657;28;20712;-83
2024/04/01 07:47:29;;;;;;;204.20;192.77;;;;;22.30;95321.00;;;;5013797;28;20208;-81
2024/04/01 07:50:19;;;;;;;206.67;195.97;;;;;22.80;95312.00;;;;5030034;28;20197;-80
2024/04/01 07:53:06;;;;;;;212.80;202.03;;;;;23.20;95341.00;;;;5012318;28;20225;-83
2024/04/01 07:55:54;;;;;;;225.20;212.80;;;;;23.00;95332.00;;;;5024367;28;20213;-83
2024/04/01 07:58:41;;;;;;;234.67;221.43;;;;;23.50;95324.00;;;;5011773;28;20700;-83
2024/04/01 08:01:31;;;;;;;256.33;242.67;;;;;22.90;95305.00;;;;5016115;28;20220;-82
2024/04/01 08:04:18;;;;;;;299.83;281.77;;;;;23.50;95324.00;;;;5014984;28;20209;-83
2024/04/01 08:07:07;;;;;;;327.80;307.50;;;;;22.80;95298.00;;;;5016262;28;20215;-82
2024/04/01 08:09:54;;;;;;;333.73;312.70;;;;;22.80;95303.00;;;;5016736;28;20239;-86
2024/04/01 08:12:42;;;;;;;307.67;289.73;;;;;22.60;95310.00;;;;5015232;28;20223;-84
2024/04/01 08:17:59;;;;;;;316.03;296.87;;;;;23.00;95306.00;;;;5030179;28;20224;-66
2024/04/01 08:20:46;;;;;;;293.10;276.10;;;;;23.40;95307.00;;;;5014743;28;20204;-70
2024/04/01 08:23:36;;;;;;;365.47;340.00;;;;;23.00;95306.00;;;;5004383;28;20230;-71
2024/04/01 08:26:23;;;;;;;365.67;339.53;;;;;23.40;95316.00;;;;5008193;28;20210;-70
2024/04/01 08:29:11;;;;;;;249.73;237.07;;;;;23.70;95324.00;;;;5010815;28;20230;-66
2024/04/01 08:31:58;;;;;;;251.57;238.80;;;;;23.70;95314.00;;;;5001575;28;20580;-69
2024/04/01 08:34:46;;;;;;;235.47;224.03;;;;;22.90;95312.00;;;;5002805;28;20227;-70
2024/04/01 08:37:33;;;;;;;214.07;204.10;;;;;22.90;95315.00;;;;4998556;28;20216;-71
2024/04/01 08:40:23;;;;;;;208.90;199.23;;;21.40;79.00;23.00;95335.00;;;;4999694;28;20208;-69
2024/04/01 08:43:19;;;;;;;172.13;164.37;;;21.40;79.60;23.30;95322.00;;;;5002938;28;20710;-69
2024/04/01 08:46:08;;;;;;;169.10;161.40;;;21.50;79.80;24.10;95334.00;;;;5004716;28;20221;-67
2024/04/01 08:49:00;;;;;;;184.23;175.33;;;21.70;79.30;24.80;95331.00;;;;5007931;28;20225;-65
2024/04/01 08:51:50;;;;;;;202.40;192.90;;;21.80;78.50;23.70;95340.00;;;;4996933;28;20255;-68
2024/04/01 08:54:37;;;;;;;196.00;186.83;;;21.80;79.00;23.90;95329.00;;;;5008639;28;20233;-67
2024/04/01 08:57:26;;;;;;;196.57;188.00;;;21.90;76.10;23.10;95327.00;;;;5009774;28;20701;-65
2024/04/01 09:00:14;;;;;;;180.07;171.67;;;21.90;73.20;24.30;95314.00;;;;4992486;28;20206;-64
2024/04/01 09:03:02;;;;;;;209.97;200.10;;;21.90;75.10;24.30;95312.00;;;;4987575;28;20297;-69
2024/04/01 09:05:49;;;;;;;199.93;190.57;;;;;23.80;95294.00;;;;4991742;28;20251;-71
2024/04/01 09:08:37;;;;;;;200.63;192.00;;;;;24.20;95309.00;;;;5009552;28;20217;-70
2024/04/01 09:11:25;;;;;;;221.70;211.90;;;;;23.70;95289.00;;;;4993286;28;20272;-66
2024/04/01 09:14:16;;;;;;;237.13;226.27;;;;;24.00;95309.00;;;;4989442;28;20738;-64
2024/04/01 09:17:03;;;;;;;267.00;253.17;;;;;24.10;95299.00;;;;4988645;28;20221;-65
2024/04/01 09:19:52;;;;;;;363.50;337.90;;;;;23.60;95294.00;;;;4992323;28;20206;-65
2024/04/01 09:22:44;;;;;;;400.80;372.13;;;;;24.10;95308.00;;;;4999959;28;20683;-67
2024/04/01 09:25:32;;;;;;;376.93;352.27;;;22.50;66.40;24.40;95291.00;;;;4990421;28;20206;-70
2024/04/01 09:28:19;;;;;;;378.50;354.33;;;22.60;66.00;23.60;95290.00;;;;5002572;28;20219;-70
2024/04/01 09:31:10;;;;;;;338.57;320.03;;;22.50;91.00;24.00;95287.00;;;;4991924;28;20212;-67
2024/04/01 09:33:57;;;;;;;419.37;388.07;;;22.70;93.60;24.60;95267.00;;;;4989404;28;20230;-65
2024/04/01 09:36:45;;;;;;;431.93;396.67;;;22.70;94.40;24.50;95275.00;;;;4991232;28;20206;-70
2024/04/01 09:39:32;;;;;;;438.13;400.27;;;22.80;94.20;24.40;95248.00;;;;5005795;28;20213;-66
2024/04/01 09:42:21;;;;;;;439.20;398.80;;;23.00;93.90;24.50;95272.00;;;;5009272;28;20217;-65
2024/04/01 09:45:08;;;;;;;428.90;395.30;;;22.90;93.00;24.80;95276.00;;;;4996414;28;20211;-69
2024/04/01 09:47:58;;;;;;;439.10;403.70;;;23.00;92.80;25.40;95282.00;;;;4991887;28;20194;-70
2024/04/01 09:50:47;;;;;;;307.77;292.67;;;23.20;93.40;25.30;95268.00;;;;4988102;28;20252;-65
2024/04/01 09:53:35;;;;;;;340.20;322.77;;;23.40;93.00;24.70;95259.00;;;;4990791;28;20321;-65
2024/04/01 09:57:19;;;;;;;432.60;399.23;;;23.40;92.80;25.00;95272.00;;;;4991466;28;20250;-70
2024/04/01 10:00:16;;;;;;;430.07;397.30;;;;;25.00;95217.00;;;;4992792;28;20206;-66
2024/04/01 10:03:40;;;;;;;332.83;314.80;;;;;25.00;95232.00;;;;4990422;28;20226;-70
2024/04/01 10:06:51;;;;;;;288.30;274.33;;;;;24.80;95228.00;;;;4981188;28;20228;-68
2024/04/01 10:10:05;;;;;;;252.67;241.00;;;;;24.70;95232.00;;;;4991999;28;20224;-68
2024/04/01 10:13:15;;;;;;;265.40;252.33;;;;;25.70;95241.00;;;;4994126;28;20260;-71
2024/04/01 10:16:51;;;;;;;250.43;238.77;;;23.70;55.80;25.70;95211.00;;;;4994035;28;20761;-65
2024/04/01 10:20:12;;;;;;;282.80;269.20;;;23.70;56.60;25.10;95209.00;;;;4988239;28;20221;-68
2024/04/01 10:23:56;;;;;;;324.07;307.43;;;;;25.40;95223.00;;;;4996370;28;20883;-64
2024/04/01 10:27:24;;;;;;;415.67;388.80;;;;;25.30;95209.00;;;;4990032;28;20216;-65
2024/04/01 10:30:43;;;;;;;279.90;267.50;;;;;26.00;95194.00;;;;4940669;28;20605;-69
2024/04/01 10:34:00;;;;;;;259.27;248.00;;;;;25.60;95204.00;;;;4934325;28;20225;-70
2024/04/01 10:37:25;;;;;;;210.83;201.53;;;;;25.50;95176.00;;;;5001991;28;20220;-65
2024/04/01 10:40:26;;;;;;;191.57;183.67;;;;;25.70;95217.00;;;;4991998;28;20195;-68
2024/04/01 10:43:47;;;;;;;195.63;187.60;;;;;27.70;95202.00;;;;4997871;28;20226;-69
2024/04/01 10:46:56;;;;;;;193.27;185.47;;;;;25.80;95186.00;;;;4992056;28;21045;-67
2024/04/01 10:50:13;;;;;;;158.23;151.67;;;;;26.20;95163.00;;;;5003209;28;20464;-68
2024/04/01 10:53:23;;;;;;;227.07;216.70;;;;;26.40;95201.00;;;;4995904;28;20223;-65
2024/04/01 10:56:38;;;;;;;206.20;198.27;;;;;26.90;95186.00;;;;5000210;28;20209;-64
2024/04/01 11:00:05;;;;;;;219.17;210.27;;;;;26.70;95201.00;;;;5001912;28;20253;-64
2024/04/01 11:03:28;;;;;;;215.57;205.80;;;;;26.60;95177.00;;;;4978958;28;20228;-66
2024/04/01 11:06:39;;;;;;;195.17;187.47;;;;;26.20;95158.00;;;;4990887;28;20711;-66
2024/04/01 11:09:45;;;;;;;204.37;196.13;;;;;26.30;95150.00;;;;4995284;28;20215;-70
2024/04/01 11:12:38;;;;;;;198.93;191.23;;;;;27.50;95192.00;;;;5001822;28;20212;-71
2024/04/01 11:15:27;;;;;;;220.83;212.10;;;;;26.90;95165.00;;;;4998954;28;20216;-65
2024/04/01 11:18:34;;;;;;;217.83;209.10;;;;;26.90;95150.00;;;;5000367;28;20214;-68
2024/04/01 11:21:34;;;;;;;193.77;186.10;;;;;27.80;95147.00;;;;5001796;28;20287;-65
2024/04/01 11:24:33;;;;;;;241.67;232.10;;;;;28.30;95145.00;;;;4997745;28;20619;-71
2024/04/01 11:27:46;;;;;;;155.67;149.40;;;;;26.90;95147.00;;;;4996739;28;20018;-70
2024/04/01 11:30:35;;;;;;;131.80;126.47;;;;;26.60;95166.00;;;;4998416;28;20275;-67
2024/04/01 11:33:27;;;;;;;123.93;119.03;;;;;28.10;95196.00;;;;5003028;28;20635;-72
2024/04/01 11:36:21;;;;;;;169.37;162.77;;;25.30;83.20;25.80;95185.00;;;;4995458;28;20703;-66
2024/04/01 11:39:13;;;;;;;123.73;118.33;;;25.10;51.60;26.30;95158.00;;;;4993758;28;20205;-65
2024/04/01 11:42:02;;;;;;;143.63;136.83;;;24.90;51.70;27.50;95182.00;;;;4998422;28;20210;-71
2024/04/01 11:44:52;;;;;;;133.37;128.03;;;25.10;52.70;26.30;95178.00;;;;4993048;28;20293;-68
2024/04/01 11:47:42;;;;;;;124.03;118.97;;;25.10;51.50;26.60;95178.00;;;;4994805;28;20639;-65
2024/04/01 11:50:29;;;;;;;128.93;123.70;;;25.00;51.60;27.40;95176.00;;;;4997149;28;20654;-69
2024/04/01 11:53:17;;;;;;;128.67;123.33;;;25.20;53.30;27.50;95180.00;;;;4993724;28;20231;-69
2024/04/01 11:56:05;;;;;;;146.60;139.37;;;25.30;52.10;26.20;95169.00;;;;4995866;28;20675;-65
2024/04/01 11:58:54;;;;;;;135.00;129.43;;;25.20;51.40;26.40;95191.00;;;;4995537;28;20675;-70
2024/04/01 12:01:41;;;;;;;118.30;112.93;;;24.90;52.20;25.50;95183.00;;;;4987799;28;20215;-67
2024/04/01 12:04:30;;;;;;;97.47;93.03;;;24.50;53.10;25.60;95204.00;;;;4997230;28;20721;-69
2024/04/01 12:07:17;;;;;;;95.63;91.40;;;24.30;52.90;26.30;95196.00;;;;4992691;28;20218;-66
2024/04/01 12:10:06;;;;;;;96.20;91.33;;;24.40;53.70;25.90;95165.00;;;;4986883;28;20278;-66
2024/04/01 12:12:54;;;;;;;81.50;77.57;;;24.40;53.60;25.60;95174.00;;;;4992538;28;20656;-69
2024/04/01 12:15:45;;;;;;;89.80;85.93;;;24.20;53.70;26.00;95190.00;;;;4992282;28;20205;-68
2024/04/01 12:18:42;;;;;;;71.87;68.40;;;24.30;54.20;25.80;95186.00;;;;4996186;28;20272;-71
2024/04/01 12:21:32;;;;;;;56.93;54.30;;;24.30;55.10;25.30;95163.00;;;;4992886;28;20209;-66
2024/04/01 12:24:20;;;;;;;91.40;87.50;;;24.20;54.30;25.90;95178.00;;;;5004294;28;20221;-69
2024/04/01 12:27:10;;;;;;;95.43;90.30;;;24.30;55.70;25.20;95204.00;;;;4995631;28;20217;-65
2024/04/01 12:30:00;;;;;;;84.40;80.67;;;24.10;55.60;25.60;95213.00;;;;4989940;28;20276;-65
2024/04/01 12:32:50;;;;;;;70.73;67.53;;;24.10;55.70;25.60;95212.00;;;;4996347;28;20229;-69
2024/04/01 12:35:40;;;;;;;75.10;71.87;;;23.80;55.90;24.60;95215.00;;;;4986647;28;20207;-64
2024/04/01 12:38:34;;;;;;;69.10;66.33;;;23.50;56.90;24.80;95208.00;;;;4989190;28;20206;-68
2024/04/01 12:41:22;;;;;;;68.27;65.03;;;23.60;56.40;24.90;95192.00;;;;4998591;28;20198;-65
2024/04/01 12:44:14;;;;;;;70.40;66.07;;;23.50;56.60;23.80;95228.00;;;;4992725;28;20277;-71
2024/04/01 12:47:01;;;;;;;62.33;58.43;;;23.10;56.90;24.40;95237.00;;;;4992503;28;20210;-67
2024/04/01 12:49:51;;;;;;;61.30;58.23;;;23.10;57.70;24.00;95190.00;;;;4999360;28;20225;-70
2024/04/01 12:52:57;;;;;;;50.70;48.10;;;23.10;57.10;25.60;95215.00;;;;5001336;28;20627;-65
2024/04/01 12:55:54;;;;;;;73.93;70.70;;;23.10;56.90;26.30;95227.00;;;;4996221;28;20240;-68
2024/04/01 12:58:52;;;;;;;101.73;97.63;;;;;24.70;95223.00;;;;4991713;28;20667;-69
2024/04/01 13:01:46;;;;;;;94.97;90.87;;;;;24.40;95230.00;;;;5011950;28;20194;-67
2024/04/01 13:04:49;;;;;;;98.87;94.03;;;;;24.90;95228.00;;;;5005146;28;20222;-71
2024/04/01 13:07:51;;;;;;;78.57;75.07;;;;;23.90;95229.00;;;;5007765;28;20193;-69
2024/04/01 13:10:48;;;;;;;68.37;65.20;;;;;24.00;95247.00;;;;4992470;28;20621;-69
2024/04/01 13:13:44;;;;;;;79.20;75.80;;;;;24.20;95248.00;;;;4989352;28;20222;-66
2024/04/01 13:16:39;;;;;;;69.23;66.13;;;;;23.70;95283.00;;;;4991354;28;20222;-67
2024/04/01 13:19:32;;;;;;;68.67;65.23;;;;;23.60;95272.00;;;;4990037;28;20229;-66
2024/04/01 13:22:28;;;;;;;50.43;47.47;;;;;22.50;95270.00;;;;4994235;28;20206;-67
2024/04/01 13:25:21;;;;;;;23.70;21.27;;;;;23.30;95319.00;;;;4982183;28;20663;-71
2024/04/01 13:28:15;;;;;;;65.57;61.30;;;;;22.60;95326.00;;;;4992867;28;20288;-66
2024/04/01 13:31:14;;;;;;;41.33;37.57;;;;;23.00;95293.00;;;;4986103;28;20225;-67
2024/04/01 13:34:24;;;;;;;37.47;34.20;;;;;22.10;95287.00;;;;4981938;28;20247;-69
2024/04/01 13:37:19;;;;;;;30.87;28.67;;;;;22.20;95298.00;;;;4989103;28;20232;-65